Time;durP1;ratioP1;P1;durP2;ratioP2;P2;SDS_P1;SDS_P2;PMS_P1;PMS_P2;Temp;Humidity;BMP_temperature;BMP_pressure;BME280_temperature;BME280_humidity;BME280_pressure;Samples;Min_cycle;Max_cycle;Signal;HPM_P1;HPM_P2
2024/03/10 00:00:20;;;;;;;21.40;12.98;;;;;;;-146.27;60.60;46006.25;5089168;28;20040;-77
2024/03/10 00:02:46;;;;;;;21.10;12.98;;;;;;;-146.27;60.07;46036.09;5085659;28;20024;-78
2024/03/10 00:05:12;;;;;;;24.67;13.98;;;;;;;-146.27;59.96;46054.00;5088527;28;20042;-70
2024/03/10 00:07:41;;;;;;;21.67;12.63;;;;;;;-146.27;59.76;46032.13;5107206;28;20038;-72
2024/03/10 00:10:09;;;;;;;21.85;12.60;;;;;;;-146.27;59.84;46026.16;5087881;28;20028;-73
2024/03/10 00:12:34;;;;;;;23.00;12.70;;;;;;;-146.27;59.67;46022.16;5089570;28;20020;-72
2024/03/10 00:15:00;;;;;;;22.55;13.15;;;;;;;-146.27;59.76;46046.06;5091874;28;20500;-72
2024/03/10 00:17:25;;;;;;;22.27;13.38;;;;;;;-146.27;60.12;46048.03;5089804;28;20031;-73
2024/03/10 00:19:52;;;;;;;23.85;13.50;;;;;;;-146.27;60.36;46034.09;5090284;28;20106;-71
2024/03/10 00:22:17;;;;;;;21.88;13.02;;;;;;;-146.27;60.17;46061.97;5089740;28;20034;-71
2024/03/10 00:24:43;;;;;;;25.55;13.85;;;;;;;-146.27;60.09;46026.16;5084780;28;20040;-72
2024/03/10 00:27:08;;;;;;;25.58;12.68;;;;;;;-146.27;59.87;46048.03;5075530;28;20062;-73
2024/03/10 00:29:34;;;;;;;26.05;13.27;;;;;;;-146.27;59.81;46061.97;5088309;28;20057;-71
2024/03/10 00:32:00;;;;;;;21.10;12.73;;;;;;;-146.27;59.83;46077.91;5084036;28;20082;-72
2024/03/10 00:34:25;;;;;;;23.83;12.88;;;;;;;-146.27;60.69;46085.88;5085700;28;20093;-72
2024/03/10 00:36:50;;;;;;;25.20;13.48;;;;;;;-146.27;60.64;46061.97;5083333;28;20081;-72
2024/03/10 00:39:15;;;;;;;21.00;13.07;;;;;;;-146.27;60.39;46061.97;5090626;28;20020;-72
2024/03/10 00:41:41;;;;;;;21.27;12.52;;;;;;;-146.27;59.79;46061.97;5087307;28;20023;-74
2024/03/10 00:44:06;;;;;;;21.70;12.52;;;;;;;-146.27;59.78;46081.88;5088832;28;20028;-73
2024/03/10 00:46:32;;;;;;;20.42;11.48;;;;;;;-146.27;59.76;46069.94;5083838;28;20364;-72
2024/03/10 00:48:58;;;;;;;21.77;12.80;;;;;;;-146.27;60.50;46056.00;5090710;28;20083;-70
2024/03/10 00:51:24;;;;;;;22.23;12.18;;;;;;;-146.27;60.24;46081.88;5089860;28;20548;-72
2024/03/10 00:53:50;;;;;;;22.73;13.25;;;;;;;-146.27;60.69;46065.97;5090191;28;20069;-72
2024/03/10 00:56:19;;;;;;;24.35;12.95;;;;;;;-146.27;60.36;46111.75;5088603;28;20520;-74
2024/03/10 00:58:45;;;;;;;19.55;12.05;;;;;;;-146.27;60.31;46069.94;5089656;28;20032;-73
2024/03/10 01:01:11;;;;;;;26.95;13.48;;;;;;;-146.27;60.48;46054.00;5081703;28;20077;-73
2024/03/10 01:03:37;;;;;;;26.50;12.80;;;;;;;-146.27;60.31;46083.88;5088614;28;20434;-74
2024/03/10 01:06:03;;;;;;;22.60;12.57;;;;;;;-146.27;61.01;46075.91;5087818;28;20166;-73
2024/03/10 01:08:29;;;;;;;25.90;12.77;;;;;;;-146.27;61.37;46083.88;5089004;28;20038;-74
2024/03/10 01:10:54;;;;;;;22.85;12.65;;;;;;;-146.27;61.00;46060.00;5086624;28;20484;-72
2024/03/10 01:13:20;;;;;;;22.48;12.23;;;;;;;-146.27;61.29;46065.97;5087951;28;20035;-74
2024/03/10 01:15:45;;;;;;;22.92;13.05;;;;;;;-146.27;61.23;46058.00;5089133;28;20023;-78
2024/03/10 01:18:11;;;;;;;23.95;12.65;;;;;;;-146.27;61.96;46069.94;5089917;28;20040;-77
2024/03/10 01:20:36;;;;;;;25.88;13.02;;;;;;;-146.27;62.15;46071.94;5086566;28;20024;-76
2024/03/10 01:23:03;;;;;;;22.85;12.73;;;;;;;-146.27;62.46;46097.81;5090294;28;20448;-78
2024/03/10 01:25:28;;;;;;;21.38;12.50;;;;;;;-146.27;62.45;46103.78;5084831;28;20075;-79
2024/03/10 01:27:53;;;;;;;24.25;13.07;;;;;;;-146.27;62.70;46091.84;5086426;28;20103;-79
2024/03/10 01:30:20;;;;;;;25.20;13.38;;;;;;;-146.27;63.18;46073.91;5085888;28;20361;-79
2024/03/10 01:32:46;;;;;;;25.05;13.00;;;;;;;-146.27;63.69;46075.91;5085992;28;20020;-78
2024/03/10 01:35:11;;;;;;;21.42;13.45;;;;;;;-146.27;63.42;46109.75;5079993;28;20032;-80
2024/03/10 01:37:38;;;;;;;21.35;12.65;;;;;;;-146.27;63.97;46067.94;5089328;28;20136;-77
2024/03/10 01:40:06;;;;;;;25.77;13.40;;;;;;;-146.27;63.74;46071.94;5087893;28;20138;-78
2024/03/10 01:42:31;;;;;;;21.05;12.63;;;;;;;-146.27;64.15;46060.00;5095464;28;20028;-78
2024/03/10 01:44:59;;;;;;;22.45;13.02;;;;;;;-146.27;64.01;46073.91;5088235;28;20426;-79
2024/03/10 01:47:25;;;;;;;26.27;13.73;;;;;;;-146.27;64.34;46061.97;5084581;28;20028;-79
2024/03/10 01:49:52;;;;;;;26.05;13.40;;;;;;;-146.27;64.46;46060.00;5089843;28;20058;-79
2024/03/10 01:52:17;;;;;;;26.27;13.57;;;;;;;-146.27;65.23;46069.94;5087691;28;20043;-78
2024/03/10 01:54:44;;;;;;;23.45;13.90;;;;;;;-146.27;64.76;46097.81;5088323;28;20028;-78
2024/03/10 01:57:10;;;;;;;23.25;13.98;;;;;;;-146.27;65.51;46077.91;5088135;28;20058;-78
2024/03/10 01:59:35;;;;;;;22.92;13.68;;;;;;;-146.27;65.78;46085.88;5083809;28;20523;-77
2024/03/10 02:02:01;;;;;;;26.13;13.65;;;;;;;-146.27;65.67;46101.78;5089223;28;20032;-78
2024/03/10 02:04:26;;;;;;;22.83;13.45;;;;;;;-146.27;65.54;46054.00;5078220;28;20062;-78
2024/03/10 02:06:53;;;;;;;24.40;14.35;;;;;;;-146.27;64.99;46038.09;5089344;28;20452;-78
2024/03/10 02:09:19;;;;;;;28.27;13.88;;;;;;;-146.27;64.69;46042.06;5092523;28;20391;-77
2024/03/10 02:11:44;;;;;;;24.65;13.50;;;;;;;-146.27;65.53;46036.09;5091009;28;20035;-78
2024/03/10 02:14:10;;;;;;;27.05;13.80;;;;;;;-146.27;65.68;46077.91;5093453;28;20024;-78
2024/03/10 02:16:35;;;;;;;27.88;14.52;;;;;;;-146.27;66.45;46054.00;5081753;28;20410;-78
2024/03/10 02:19:02;;;;;;;27.75;14.52;;;;;;;-146.27;66.29;46085.88;5092429;28;20028;-78
2024/03/10 02:21:28;;;;;;;26.58;14.75;;;;;;;-146.27;67.14;46069.94;5089492;28;20028;-79
2024/03/10 02:24:31;;;;;;;21.75;13.05;;;;;;;-146.27;66.20;46050.03;5092431;28;20383;-79
2024/03/10 02:26:57;;;;;;;26.15;14.25;;;;;;;-146.27;65.74;46061.97;5090520;28;20045;-78
2024/03/10 02:29:26;;;;;;;24.20;13.75;;;;;;;-146.27;66.27;46048.03;5093750;28;20057;-77
2024/03/10 02:48:39;;;;;;;;;;;;;;;-146.27;65.88;46024.16;5070201;28;20454;-77
2024/03/10 02:51:04;;;;;;;24.02;13.10;;;;;;;-146.27;65.62;46022.16;5071431;28;19912;-77
2024/03/10 02:53:30;;;;;;;28.05;13.45;;;;;;;-146.27;65.44;46040.09;5088323;28;20028;-78
2024/03/10 02:55:56;;;;;;;24.25;14.35;;;;;;;-146.27;65.36;46022.16;5092893;28;20020;-78
2024/03/10 02:58:21;;;;;;;28.55;15.07;;;;;;;-146.27;65.54;46040.09;5092797;28;20110;-78
2024/03/10 03:00:48;;;;;;;25.60;13.65;;;;;;;-146.27;66.28;46061.97;5092552;28;20028;-78
2024/03/10 03:03:13;;;;;;;25.33;14.52;;;;;;;-146.27;65.71;46044.06;5092986;28;20060;-76
2024/03/10 03:05:39;;;;;;;24.90;13.43;;;;;;;-146.27;65.31;46038.09;5092275;28;20086;-77
2024/03/10 03:08:05;;;;;;;24.30;13.70;;;;;;;-146.27;65.95;46034.09;5091331;28;20403;-78
2024/03/10 03:10:31;;;;;;;24.88;14.68;;;;;;;-146.27;66.67;46044.06;5088398;28;20032;-78
2024/03/10 03:12:56;;;;;;;27.13;14.57;;;;;;;-146.27;66.37;46034.09;5074813;28;20032;-78
2024/03/10 03:15:21;;;;;;;23.15;13.18;;;;;;;-146.27;67.17;46036.09;5092457;28;20148;-79
2024/03/10 03:17:47;;;;;;;25.13;14.05;;;;;;;-146.27;66.97;46018.19;5091784;28;20039;-78
2024/03/10 03:20:21;;;;;;;27.25;14.57;;;;;;;-146.27;66.44;46030.13;5092232;28;20391;-78
2024/03/10 03:22:48;;;;;;;24.63;14.38;;;;;;;-146.27;66.11;46044.06;5085679;28;21494;-78
2024/03/10 03:25:16;;;;;;;27.95;15.45;;;;;;;-146.27;66.52;46036.09;5091890;28;20040;-78
2024/03/10 03:27:46;;;;;;;28.55;14.35;;;;;;;-146.27;66.57;46030.13;5081949;28;20032;-76
2024/03/10 03:30:11;;;;;;;26.92;14.52;;;;;;;-146.27;67.22;46044.06;5085653;28;20077;-79
2024/03/10 03:32:37;;;;;;;28.48;14.75;;;;;;;-146.27;66.80;46026.16;5091787;28;20077;-78
2024/03/10 03:35:03;;;;;;;26.17;14.23;;;;;;;-146.27;67.17;46038.09;5091682;28;20054;-72
2024/03/10 03:37:28;;;;;;;26.85;14.77;;;;;;;-146.27;67.28;46012.22;5089614;28;20024;-73
2024/03/10 03:39:53;;;;;;;25.65;15.38;;;;;;;-146.27;67.60;46030.13;5090860;28;20435;-72
2024/03/10 03:42:19;;;;;;;23.60;13.70;;;;;;;-146.27;67.60;45998.28;5090540;28;20458;-73
2024/03/10 03:44:45;;;;;;;28.52;15.00;;;;;;;-146.27;67.43;46012.22;5088440;28;20384;-73
2024/03/10 03:47:11;;;;;;;26.73;14.82;;;;;;;-146.27;67.39;46014.22;5086705;28;20028;-73
2024/03/10 03:49:37;;;;;;;26.30;16.15;;;;;;;-146.27;67.65;46030.13;5090669;28;20034;-72
2024/03/10 03:52:05;;;;;;;25.27;14.82;;;;;;;-146.27;67.56;46038.09;5090093;28;20035;-72
2024/03/10 03:54:32;;;;;;;27.23;15.98;;;;;;;-146.27;68.18;46006.25;5081040;28;20024;-73
2024/03/10 03:56:58;;;;;;;27.58;16.00;;;;;;;-146.27;67.91;46034.09;5086389;28;20035;-72
2024/03/10 03:59:23;;;;;;;25.77;14.98;;;;;;;-146.27;67.78;46016.19;5091466;28;20102;-73
2024/03/10 04:01:50;;;;;;;27.38;15.52;;;;;;;-146.27;67.47;46004.25;5084458;28;20319;-72
2024/03/10 04:04:16;;;;;;;29.17;15.82;;;;;;;-146.27;67.86;46038.09;5083598;28;20031;-72
2024/03/10 04:06:42;;;;;;;28.60;16.60;;;;;;;-146.27;67.40;45992.31;5085040;28;20024;-71
2024/03/10 04:09:07;;;;;;;29.60;16.23;;;;;;;-146.27;68.00;46006.25;5089296;28;20028;-72
2024/03/10 04:11:33;;;;;;;27.75;16.67;;;;;;;-146.27;67.83;46002.25;5090231;28;20111;-71
2024/03/10 04:13:59;;;;;;;28.23;15.80;;;;;;;-146.27;67.73;46002.25;5089882;28;20031;-72
2024/03/10 04:16:25;;;;;;;28.48;15.98;;;;;;;-146.27;67.60;46006.25;5085331;28;20069;-73
2024/03/10 04:18:50;;;;;;;28.20;16.05;;;;;;;-146.27;68.42;46010.22;5090929;28;20106;-72
2024/03/10 04:21:15;;;;;;;31.00;17.25;;;;;;;-146.27;68.71;46012.22;5089930;28;20028;-72
2024/03/10 04:23:41;;;;;;;28.80;15.95;;;;;;;-146.27;68.40;45990.31;5089354;28;20023;-73
2024/03/10 04:26:09;;;;;;;29.63;17.27;;;;;;;-146.27;68.30;46014.22;5088958;28;20032;-72
2024/03/10 04:28:38;;;;;;;31.50;16.45;;;;;;;-146.27;69.39;45994.31;5090426;28;20044;-72
2024/03/10 04:31:04;;;;;;;35.40;17.27;;;;;;;-146.27;68.66;45986.34;5087136;28;20121;-73
2024/03/10 04:33:29;;;;;;;35.75;17.88;;;;;;;-146.27;69.36;46008.22;5079761;28;20028;-73
2024/03/10 04:35:55;;;;;;;33.47;16.80;;;;;;;-146.27;68.50;45988.31;5083278;28;20016;-73
2024/03/10 04:38:20;;;;;;;31.00;17.02;;;;;;;-146.27;68.85;45966.44;5089498;28;20111;-72
2024/03/10 04:40:45;;;;;;;30.30;16.10;;;;;;;-146.27;69.29;45988.31;5090073;28;20012;-72
2024/03/10 04:43:12;;;;;;;29.70;16.52;;;;;;;-146.27;68.71;45988.31;5090086;28;20040;-73
2024/03/10 04:45:37;;;;;;;33.03;17.65;;;;;;;-146.27;69.30;45974.41;5088866;28;20028;-79
2024/03/10 04:48:03;;;;;;;33.67;18.17;;;;;;;-146.27;68.61;45962.44;5090532;28;20047;-79
2024/03/10 04:50:29;;;;;;;35.90;18.40;;;;;;;-146.27;69.35;46016.19;5087599;28;20390;-79
2024/03/10 04:52:57;;;;;;;30.40;16.83;;;;;;;-146.27;69.29;45978.38;5086178;28;20131;-78
2024/03/10 04:55:23;;;;;;;34.08;17.33;;;;;;;-146.27;68.84;45968.41;5088405;28;20012;-78
2024/03/10 04:57:48;;;;;;;33.08;17.30;;;;;;;-146.27;68.52;45964.44;5085328;28;20034;-79
2024/03/10 05:00:16;;;;;;;35.03;17.35;;;;;;;-146.27;68.79;45984.34;5086346;28;20016;-79
2024/03/10 05:02:41;;;;;;;32.40;17.75;;;;;;;-146.27;69.19;45986.34;5091718;28;20035;-79
2024/03/10 05:05:07;;;;;;;29.25;15.88;;;;;;;-146.27;68.47;45962.44;5092061;28;20540;-78
2024/03/10 05:07:33;;;;;;;28.50;17.13;;;;;;;-146.27;68.79;45982.34;5077652;28;20442;-78
2024/03/10 05:09:58;;;;;;;31.25;17.02;;;;;;;-146.27;68.71;45950.50;5080001;28;20119;-77
2024/03/10 05:12:24;;;;;;;29.10;16.83;;;;;;;-146.27;68.87;45982.34;5088999;28;20047;-78
2024/03/10 05:14:50;;;;;;;29.83;16.23;;;;;;;-146.27;68.85;45986.34;5090603;28;20499;-78
2024/03/10 05:17:15;;;;;;;30.75;16.85;;;;;;;-146.27;68.47;45966.44;5089670;28;20032;-77
2024/03/10 05:19:42;;;;;;;28.23;16.30;;;;;;;-146.27;69.23;45998.28;5089958;28;20031;-79
2024/03/10 05:22:09;;;;;;;29.27;17.35;;;;;;;-146.27;69.21;45984.34;5082788;28;20468;-78
2024/03/10 05:24:39;;;;;;;26.52;16.98;;;;;;;-146.27;69.17;45978.38;5082607;28;20047;-78
2024/03/10 05:27:05;;;;;;;29.48;17.05;;;;;;;-146.27;68.55;45960.47;5086410;28;20047;-79
2024/03/10 05:29:30;;;;;;;33.97;17.00;;;;;;;-146.27;69.05;45994.31;5077637;28;20029;-79
2024/03/10 05:31:56;;;;;;;29.73;17.10;;;;;;;-146.27;68.85;46014.22;5088559;28;20084;-78
2024/03/10 05:34:21;;;;;;;29.27;17.35;;;;;;;-146.27;69.62;46038.09;5089081;28;20036;-78
2024/03/10 05:36:47;;;;;;;31.88;17.00;;;;;;;-146.27;69.50;46030.13;5088813;28;20024;-77
2024/03/10 05:39:14;;;;;;;29.60;16.50;;;;;;;-146.27;69.82;46042.06;5086037;28;20528;-79
2024/03/10 05:41:40;;;;;;;32.17;17.27;;;;;;;-146.27;69.48;46018.19;5090175;28;20127;-78
2024/03/10 05:44:06;;;;;;;30.55;17.58;;;;;;;-146.27;70.42;46018.19;5089120;28;20039;-78
2024/03/10 05:46:32;;;;;;;34.20;18.15;;;;;;;-146.27;69.54;46022.16;5093137;28;20020;-78
2024/03/10 05:49:00;;;;;;;31.65;16.55;;;;;;;-146.27;69.89;46030.13;5093891;28;20043;-77
2024/03/10 05:51:27;;;;;;;35.00;17.27;;;;;;;-146.27;69.96;46028.13;5092822;28;20024;-78
2024/03/10 05:53:52;;;;;;;35.22;17.40;;;;;;;-146.27;70.06;46050.03;5091218;28;20049;-78
2024/03/10 05:56:18;;;;;;;32.03;17.90;;;;;;;-146.27;69.93;46030.13;5092675;28;20423;-72
2024/03/10 05:58:45;;;;;;;29.75;15.93;;;;;;;-146.27;70.24;46002.25;5093775;28;20446;-72
2024/03/10 06:01:11;;;;;;;30.80;17.23;;;;;;;-146.27;70.81;46058.00;5088671;28;20056;-71
2024/03/10 06:03:37;;;;;;;28.73;16.83;;;;;;;-146.27;70.32;45998.28;5087752;28;20367;-72
2024/03/10 06:06:03;;;;;;;31.17;17.05;;;;;;;-146.27;70.78;45994.31;5086858;28;20070;-72
2024/03/10 06:08:28;;;;;;;29.75;16.90;;;;;;;-146.27;70.15;46034.09;5085636;28;20460;-72
2024/03/10 06:10:54;;;;;;;30.83;17.50;;;;;;;-146.27;71.25;46026.16;5093251;28;20103;-71
2024/03/10 06:13:20;;;;;;;31.35;17.23;;;;;;;-146.27;70.65;46018.19;5092548;28;20039;-71
2024/03/10 06:15:45;;;;;;;30.70;16.52;;;;;;;-146.27;70.57;46026.16;5092736;28;20027;-71
2024/03/10 06:18:21;;;;;;;29.80;16.77;;;;;;;-146.27;70.12;45996.28;5090302;28;20522;-71
2024/03/10 06:26:15;;;;;;;;;;;;;;;-146.27;71.08;46012.22;5091915;28;20063;-71
2024/03/10 06:28:41;;;;;;;30.58;16.92;;;;;;;-146.27;71.30;46054.00;5092684;28;20425;-71
2024/03/10 06:31:06;;;;;;;30.50;17.10;;;;;;;-146.27;70.95;46058.00;5091524;28;20044;-70
2024/03/10 06:33:35;;;;;;;31.38;17.58;;;;;;;-146.27;71.25;46073.91;5090539;28;20043;-70
2024/03/10 06:36:08;;;;;;;32.47;17.60;;;;;;;-146.27;71.46;46085.88;5092677;28;20023;-69
2024/03/10 06:38:35;;;;;;;28.75;17.33;;;;;;;-146.27;71.39;46145.59;5090484;28;20028;-70
2024/03/10 06:41:00;;;;;;;31.35;17.55;;;;;;;-146.27;71.10;46145.59;5091384;28;20035;-69
2024/03/10 06:43:26;;;;;;;33.42;17.73;;;;;;;-146.27;71.14;46105.78;5083368;28;20027;-71
2024/03/10 06:45:51;;;;;;;32.72;17.33;;;;;;;-146.27;70.42;46123.69;5097342;28;20099;-71
2024/03/10 06:48:17;;;;;;;34.83;17.63;;;;;;;-146.27;70.48;46151.56;5096293;28;20472;-70
2024/03/10 06:50:42;;;;;;;28.80;15.73;;;;;;;-146.27;70.96;46181.41;5077906;28;20496;-70
2024/03/10 06:53:07;;;;;;;28.95;17.52;;;;;;;-146.27;70.65;46185.41;5085211;28;20383;-70
2024/03/10 06:55:33;;;;;;;34.10;18.40;;;;;;;-146.27;71.54;46241.13;5095283;28;20105;-70
2024/03/10 06:57:58;;;;;;;30.48;17.08;;;;;;;-146.27;71.44;46243.13;5092166;28;20109;-70
2024/03/10 07:00:25;;;;;;;35.30;17.77;;;;;;;-146.27;72.26;46255.06;5087710;28;20128;-69
2024/03/10 07:02:50;;;;;;;33.30;16.73;;;;;;;-146.27;71.14;46282.94;5090692;28;20480;-70
2024/03/10 07:05:16;;;;;;;33.70;17.85;;;;;;;-146.27;71.17;46282.94;5093320;28;20105;-75
2024/03/10 07:07:41;;;;;;;30.15;16.80;;;;;;;-146.27;70.34;46306.81;5092254;28;20036;-74
2024/03/10 07:10:09;;;;;;;32.35;17.67;;;;;;;-146.27;70.82;46316.78;5083045;28;20013;-76
2024/03/10 07:12:35;;;;;;;29.15;16.75;;;;;;;-146.27;71.15;46310.81;5084393;28;20034;-76
2024/03/10 07:15:01;;;;;;;33.45;17.50;;;;;;;-146.27;70.51;46304.84;5091656;28;20391;-76
2024/03/10 07:17:26;;;;;;;31.60;17.67;;;;;;;-146.27;70.98;46352.63;5091470;28;20552;-75
2024/03/10 07:19:52;;;;;;;29.80;16.98;;;;;;;-146.27;71.31;46304.84;5092113;28;20026;-75
2024/03/10 07:22:17;;;;;;;35.60;17.70;;;;;;;-146.27;70.83;46308.81;5090650;28;20081;-75
2024/03/10 07:24:42;;;;;;;29.95;16.83;;;;;;;-146.27;70.12;46294.88;5092506;28;20036;-76
2024/03/10 07:27:09;;;;;;;32.95;18.20;;;;;;;-146.27;70.72;46318.78;5090172;28;20560;-76
2024/03/10 07:29:34;;;;;;;31.40;16.38;;;;;;;-146.27;70.73;46312.78;5091629;28;20035;-75
2024/03/10 07:32:00;;;;;;;27.92;17.30;;;;;;;-146.27;69.85;46300.84;5093432;28;20032;-75
2024/03/10 07:34:25;;;;;;;33.08;17.38;;;;;;;-146.27;69.98;46312.78;5089783;28;20073;-75
2024/03/10 07:36:50;;;;;;;29.63;16.10;;;;;;;-146.27;70.20;46308.81;5089029;28;20046;-77
2024/03/10 07:39:17;;;;;;;32.40;16.90;;;;;;;-146.27;70.09;46312.78;5081785;28;20078;-76
2024/03/10 07:41:43;;;;;;;31.88;17.42;;;;;;;-146.27;70.14;46302.84;5082583;28;20024;-75
2024/03/10 07:44:09;;;;;;;30.80;17.10;;;;;;;-146.27;70.19;46340.66;5078715;28;20029;-76
2024/03/10 07:46:34;;;;;;;32.22;17.42;;;;;;;-146.27;70.21;46308.81;5087924;28;20059;-76
2024/03/10 07:49:02;;;;;;;32.60;17.98;;;;;;;-146.27;69.39;46312.78;5090559;28;20152;-75
2024/03/10 07:51:30;;;;;;;30.95;17.25;;;;;;;-146.27;68.91;46296.88;5097395;28;20016;-75
2024/03/10 07:53:57;;;;;;;28.05;16.33;;;;;;;-146.27;69.02;46314.78;5090884;28;20111;-76
2024/03/10 07:56:22;;;;;;;31.02;16.90;;;;;;;-146.27;69.09;46308.81;5096300;28;20044;-77
2024/03/10 07:58:47;;;;;;;32.22;17.05;;;;;;;-146.27;68.71;46272.97;5089670;28;20408;-78
2024/03/10 08:01:14;;;;;;;31.67;17.35;;;;;;;-146.27;68.85;46261.03;5087587;28;20085;-80
2024/03/10 08:03:39;;;;;;;29.92;16.25;;;;;;;-146.27;68.99;46284.94;5092417;28;20028;-76
2024/03/10 08:06:07;;;;;;;26.15;15.23;;;;;;;-146.27;69.25;46269.00;5086595;28;20058;-75
2024/03/10 08:08:32;;;;;;;31.17;15.90;;;;;;;-146.27;69.52;46288.91;5085672;28;20081;-76
2024/03/10 08:10:58;;;;;;;32.83;17.83;;;;;;;-146.27;68.88;46294.88;5098660;28;20492;-76
2024/03/10 08:13:23;;;;;;;31.35;16.67;;;;;;;-146.27;69.05;46292.88;5091367;28;20500;-77
2024/03/10 08:15:48;;;;;;;29.48;16.17;;;;;;;-146.27;68.91;46267.00;5087754;28;20077;-71
2024/03/10 08:18:14;;;;;;;27.63;16.00;;;;;;;-146.27;69.22;46269.00;5094565;27;20048;-71
2024/03/10 08:20:41;;;;;;;28.40;16.05;;;;;;;-146.27;68.77;46276.97;5085311;28;20028;-71
2024/03/10 08:23:06;;;;;;;29.45;16.33;;;;;;;-146.27;69.15;46263.03;5086338;28;20028;-72
2024/03/10 08:25:33;;;;;;;28.77;15.60;;;;;;;-146.27;68.85;46265.03;5089364;28;20028;-72
2024/03/10 08:27:59;;;;;;;29.85;15.90;;;;;;;-146.27;68.78;46272.97;5087701;28;20089;-71
2024/03/10 08:30:25;;;;;;;27.55;15.75;;;;;;;-146.27;68.66;46271.00;5090029;28;20476;-71
2024/03/10 08:32:50;;;;;;;30.75;17.00;;;;;;;-146.27;68.87;46272.97;5085140;28;20072;-71
2024/03/10 08:35:17;;;;;;;29.25;16.08;;;;;;;-146.27;68.21;46276.97;5079005;28;20044;-69
2024/03/10 08:37:44;;;;;;;27.58;15.85;;;;;;;-146.27;68.31;46245.13;5091335;28;20031;-70
2024/03/10 08:40:10;;;;;;;31.08;15.60;;;;;;;-146.27;68.52;46274.97;5085959;28;20402;-73
2024/03/10 08:42:37;;;;;;;28.40;15.10;;;;;;;-146.27;68.81;46267.00;5087360;28;20016;-75
2024/03/10 08:45:04;;;;;;;26.92;15.60;;;;;;;-146.27;68.22;46276.97;5089254;28;20490;-74
2024/03/10 08:47:29;;;;;;;27.92;14.80;;;;;;;-146.27;67.47;46257.06;5087964;28;20023;-74
2024/03/10 08:49:55;;;;;;;28.88;15.90;;;;;;;-146.27;67.53;46241.13;5089892;28;20039;-74
2024/03/10 08:52:20;;;;;;;28.33;14.63;;;;;;;-146.27;67.33;46241.13;5089306;28;20027;-73
2024/03/10 08:54:46;;;;;;;27.58;14.45;;;;;;;-146.27;67.58;46237.16;5084064;28;20043;-74
2024/03/10 08:57:12;;;;;;;27.67;15.27;;;;;;;-146.27;66.83;46237.16;5089929;28;20024;-73
2024/03/10 08:59:38;;;;;;;27.52;14.82;;;;;;;-146.27;67.20;46221.22;5084985;28;20431;-72
2024/03/10 09:02:04;;;;;;;26.70;15.00;;;;;;;-146.27;66.96;46245.13;5073470;28;20017;-74
2024/03/10 09:04:30;;;;;;;24.98;14.13;;;;;;;-146.27;66.81;46225.22;5080050;28;20054;-70
2024/03/10 09:06:55;;;;;;;27.77;14.98;;;;;;;-146.27;66.34;46237.16;5093772;28;20540;-70
2024/03/10 09:09:22;;;;;;;27.67;14.15;;;;;;;-146.27;67.50;46221.22;5090937;28;20107;-71
2024/03/10 09:11:49;;;;;;;24.80;14.48;;;;;;;-146.27;66.74;46221.22;5076147;28;20066;-72
2024/03/10 09:14:14;;;;;;;26.35;14.68;;;;;;;-146.27;66.53;46209.28;5067990;28;20023;-72
2024/03/10 09:16:40;;;;;;;29.35;13.70;;;;;;;-146.27;66.25;46221.22;5078781;28;20027;-72
2024/03/10 09:19:05;;;;;;;28.88;15.10;;;;;;;-146.27;65.59;46197.34;5084603;28;20031;-72
2024/03/10 09:21:34;;;;;;;23.60;13.95;;;;;;;-146.27;65.28;46199.31;5091291;28;20027;-71
2024/03/10 09:24:00;;;;;;;22.48;13.65;;;;;;;-146.27;65.55;46223.22;5089313;28;20035;-73
2024/03/10 09:26:28;;;;;;;28.13;14.32;;;;;;;-146.27;65.23;46189.38;5084088;28;20063;-77
2024/03/10 09:28:55;;;;;;;24.98;14.20;;;;;;;-146.27;64.60;46169.47;5089261;28;20077;-78
2024/03/10 09:31:22;;;;;;;28.75;14.77;;;;;;;-146.27;64.62;46181.41;5078386;28;20032;-76
2024/03/10 09:33:47;;;;;;;27.70;15.35;;;;;;;-146.27;64.99;46193.34;5087539;28;20118;-74
2024/03/10 09:36:13;;;;;;;26.65;13.55;;;;;;;-146.27;64.73;46153.53;5088891;28;20103;-75
2024/03/10 09:38:40;;;;;;;27.80;14.60;;;;;;;-146.27;64.62;46173.44;5089368;28;20372;-75
2024/03/10 09:41:09;;;;;;;24.42;14.27;;;;;;;-146.27;64.18;46173.44;5099370;28;20031;-75
2024/03/10 09:43:37;;;;;;;27.02;14.35;;;;;;;-146.27;64.63;46159.50;5087829;28;20392;-75
2024/03/10 09:46:04;;;;;;;22.83;13.63;;;;;;;-146.27;64.87;46135.63;5086481;28;20536;-75
2024/03/10 09:48:33;;;;;;;22.20;12.93;;;;;;;-146.27;64.58;46155.53;5091965;28;20024;-74
2024/03/10 09:51:00;;;;;;;23.70;14.00;;;;;;;-146.27;64.37;46113.72;5088972;28;20028;-74
2024/03/10 09:53:27;;;;;;;25.50;14.43;;;;;;;-146.27;64.21;46143.59;5089653;28;20075;-74
2024/03/10 09:55:53;;;;;;;29.73;14.35;;;;;;;-146.27;63.75;46125.69;5088701;28;20035;-74
2024/03/10 09:58:29;;;;;;;26.40;14.45;;;;;;;-146.27;63.95;46103.78;5089834;28;20036;-74
2024/03/10 10:00:56;;;;;;;24.90;13.32;;;;;;;-146.27;64.26;46093.81;5088793;28;20038;-74
2024/03/10 10:03:24;;;;;;;27.38;14.23;;;;;;;-146.27;64.01;46089.84;5093664;28;20039;-74
2024/03/10 10:05:57;;;;;;;22.25;13.20;;;;;;;-146.27;63.73;46097.81;5096091;28;20551;-75
2024/03/10 10:08:23;;;;;;;24.35;14.25;;;;;;;-146.27;63.88;46073.91;5098699;28;20039;-75
2024/03/10 10:10:49;;;;;;;24.58;14.73;;;;;;;-146.27;64.26;46079.91;5097939;28;20016;-75
2024/03/10 10:13:28;;;;;;;27.60;14.18;;;;;;;-146.27;63.79;46042.06;5098615;28;20028;-76
2024/03/10 10:15:54;;;;;;;25.65;13.57;;;;;;;-146.27;63.37;46069.94;5084936;28;20388;-75
2024/03/10 10:18:21;;;;;;;22.27;13.65;;;;;;;-146.27;63.10;46089.84;5086499;28;20028;-77
2024/03/10 10:20:56;;;;;;;25.23;13.23;;;;;;;-146.27;63.43;46026.16;5085200;28;20399;-74
2024/03/10 10:23:23;;;;;;;26.08;14.40;;;;;;;-146.27;62.67;46034.09;5090865;28;20507;-75
2024/03/10 10:26:12;;;;;;;21.10;13.90;;;;;;;-146.27;62.46;46060.00;5091629;28;20036;-75
2024/03/10 10:28:44;;;;;;;23.00;12.63;;;;;;;-146.27;62.57;46036.09;5093823;28;20031;-75
2024/03/10 10:31:10;;;;;;;26.92;13.25;;;;;;;-146.27;62.10;45994.31;5090869;28;20466;-75
2024/03/10 10:33:38;;;;;;;24.67;13.50;;;;;;;-146.27;62.85;46012.22;5090455;28;20024;-75
2024/03/10 10:36:07;;;;;;;26.20;13.93;;;;;;;-146.27;62.40;46018.19;5094966;28;20024;-70
2024/03/10 10:38:45;;;;;;;24.67;13.75;;;;;;;-146.27;62.06;45974.41;5092687;28;20504;-70
2024/03/10 10:41:11;;;;;;;22.70;12.65;;;;;;;-146.27;61.37;45976.38;5080971;28;20023;-70
2024/03/10 10:43:38;;;;;;;18.52;12.63;;;;;;;-146.27;61.17;45966.44;5083283;28;20317;-71
2024/03/10 10:46:10;;;;;;;20.10;11.50;;;;;;;-146.27;61.29;45966.44;5095582;28;20156;-71
2024/03/10 10:48:36;;;;;;;20.45;12.40;;;;;;;-146.27;61.34;45994.31;5095983;28;20479;-70
2024/03/10 10:51:02;;;;;;;22.38;13.75;;;;;;;-146.27;61.79;45962.44;5094924;28;20065;-70
2024/03/10 10:53:29;;;;;;;21.55;13.38;;;;;;;-146.27;61.62;45966.44;5094631;28;20024;-70
2024/03/10 10:55:56;;;;;;;22.80;13.55;;;;;;;-146.27;61.26;45946.53;5104051;27;20110;-70
2024/03/10 10:58:23;;;;;;;20.45;12.55;;;;;;;-146.27;61.61;45938.56;5097942;28;20031;-72
2024/03/10 11:00:49;;;;;;;20.98;12.05;;;;;;;-146.27;61.43;45934.59;5093853;28;20118;-71
2024/03/10 11:03:17;;;;;;;22.75;13.77;;;;;;;-146.27;61.23;45922.63;5099042;28;20027;-70
2024/03/10 11:06:02;;;;;;;22.92;12.30;;;;;;;-146.27;61.06;45932.59;5095971;28;20051;-70
2024/03/10 11:08:32;;;;;;;23.40;13.50;;;;;;;-146.27;60.65;45982.34;5084252;28;20039;-70
2024/03/10 11:10:58;;;;;;;21.10;13.23;;;;;;;-146.27;60.47;45938.56;5096383;28;20031;-70
2024/03/10 11:13:25;;;;;;;24.83;13.30;;;;;;;-146.27;60.42;45958.47;5101556;28;20027;-70
2024/03/10 11:16:13;;;;;;;21.92;12.85;;;;;;;-146.27;60.45;45964.44;5093270;28;20012;-72
2024/03/10 11:18:39;;;;;;;21.52;12.63;;;;;;;-146.27;60.54;45954.50;5091883;28;20035;-70
2024/03/10 11:21:07;;;;;;;21.90;13.20;;;;;;;-146.27;60.57;45956.47;5094422;28;20063;-69